sensor_id;sensor_type;location;lat;lon;timestamp;pressure;altitude;pressure_sealevel;temperature;humidity
58467;BME280;44255;49.244;7.726;2023-03-20T04:31:04;98650.81;;;2.12;96.86
58467;BME280;44255;49.244;7.726;2023-03-20T04:33:29;98651.47;;;2.18;97.74
58467;BME280;44255;49.244;7.726;2023-03-20T04:35:55;98649.44;;;2.28;97.01
58467;BME280;44255;49.244;7.726;2023-03-20T04:38:21;98669.06;;;1.94;98.44
58467;BME280;44255;49.244;7.726;2023-03-20T04:40:47;98665.84;;;2.43;95.47
58467;BME280;44255;49.244;7.726;2023-03-20T04:43:13;98644.94;;;2.86;92.16
58467;BME280;44255;49.244;7.726;2023-03-20T04:45:45;98656.28;;;2.35;95.47
58467;BME280;44255;49.244;7.726;2023-03-20T04:48:10;98657.25;;;2.33;95.81
58467;BME280;44255;49.244;7.726;2023-03-20T04:50:36;98655.28;;;2.39;95.37
58467;BME280;44255;49.244;7.726;2023-03-20T04:53:01;98660.22;;;2.23;96.47
58467;BME280;44255;49.244;7.726;2023-03-20T04:55:27;98661.25;;;2.18;97.02
58467;BME280;44255;49.244;7.726;2023-03-20T04:57:52;98660.81;;;2.03;98.30
58467;BME280;44255;49.244;7.726;2023-03-20T05:00:17;98660.53;;;1.82;100.00
58467;BME280;44255;49.244;7.726;2023-03-20T05:02:43;98651.91;;;2.04;100.00
58467;BME280;44255;49.244;7.726;2023-03-20T05:05:08;98649.09;;;2.10;100.00
58467;BME280;44255;49.244;7.726;2023-03-20T05:07:34;98637.09;;;2.25;95.84
58467;BME280;44255;49.244;7.726;2023-03-20T05:09:59;98646.22;;;2.47;94.82
58467;BME280;44255;49.244;7.726;2023-03-20T05:12:25;98651.72;;;2.41;94.31
58467;BME280;44255;49.244;7.726;2023-03-20T05:14:51;98659.59;;;1.84;99.68
58467;BME280;44255;49.244;7.726;2023-03-20T05:17:18;98656.06;;;1.51;100.00
58467;BME280;44255;49.244;7.726;2023-03-20T05:19:44;98662.06;;;1.90;100.00
58467;BME280;44255;49.244;7.726;2023-03-20T05:22:09;98657.78;;;2.16;98.77
58467;BME280;44255;49.244;7.726;2023-03-20T05:24:35;98666.91;;;2.37;97.65
58467;BME280;44255;49.244;7.726;2023-03-20T05:27:00;98655.22;;;2.13;98.11
58467;BME280;44255;49.244;7.726;2023-03-20T05:29:26;98662.38;;;2.10;98.29
58467;BME280;44255;49.244;7.726;2023-03-20T05:31:51;98659.47;;;2.18;98.58
58467;BME280;44255;49.244;7.726;2023-03-20T05:34:16;98660.56;;;2.11;99.29
58467;BME280;44255;49.244;7.726;2023-03-20T05:36:41;98667.66;;;2.42;97.32
58467;BME280;44255;49.244;7.726;2023-03-20T05:39:07;98666.84;;;2.67;95.75
58467;BME280;44255;49.244;7.726;2023-03-20T05:41:32;98660.69;;;2.93;93.50
58467;BME280;44255;49.244;7.726;2023-03-20T05:43:57;98675.19;;;2.26;97.06
58467;BME280;44255;49.244;7.726;2023-03-20T05:46:23;98678.97;;;2.77;94.49
58467;BME280;44255;49.244;7.726;2023-03-20T05:48:48;98679.53;;;2.87;92.72
58467;BME280;44255;49.244;7.726;2023-03-20T05:51:13;98684.63;;;1.76;100.00
58467;BME280;44255;49.244;7.726;2023-03-20T05:53:39;98680.72;;;2.77;95.92
58467;BME280;44255;49.244;7.726;2023-03-20T05:56:05;98681.72;;;2.46;97.50
58467;BME280;44255;49.244;7.726;2023-03-20T05:58:30;98684.38;;;2.16;98.00
58467;BME280;44255;49.244;7.726;2023-03-20T06:00:56;98694.13;;;2.47;97.38
58467;BME280;44255;49.244;7.726;2023-03-20T06:03:22;98707.03;;;1.98;100.00
58467;BME280;44255;49.244;7.726;2023-03-20T06:05:47;98706.09;;;2.30;98.83
58467;BME280;44255;49.244;7.726;2023-03-20T06:08:12;98712.34;;;1.98;98.44
58467;BME280;44255;49.244;7.726;2023-03-20T06:10:37;98698.31;;;2.82;95.39
58467;BME280;44255;49.244;7.726;2023-03-20T06:13:03;98714.66;;;2.42;96.59
58467;BME280;44255;49.244;7.726;2023-03-20T06:15:28;98712.41;;;2.26;97.75
58467;BME280;44255;49.244;7.726;2023-03-20T06:17:54;98716.09;;;2.22;98.32
58467;BME280;44255;49.244;7.726;2023-03-20T06:20:20;98723.69;;;2.04;99.61
58467;BME280;44255;49.244;7.726;2023-03-20T06:22:45;98721.75;;;2.09;99.78
58467;BME280;44255;49.244;7.726;2023-03-20T06:25:11;98716.56;;;1.73;100.00
58467;BME280;44255;49.244;7.726;2023-03-20T06:27:37;98715.47;;;2.44;98.03
58467;BME280;44255;49.244;7.726;2023-03-20T06:30:03;98725.41;;;2.07;98.18
58467;BME280;44255;49.244;7.726;2023-03-20T06:32:28;98722.47;;;1.85;96.53
58467;BME280;44255;49.244;7.726;2023-03-20T06:34:53;98717.38;;;2.69;95.87
58467;BME280;44255;49.244;7.726;2023-03-20T06:37:19;98713.56;;;2.77;96.61
58467;BME280;44255;49.244;7.726;2023-03-20T06:39:44;98707.44;;;2.74;95.69
58467;BME280;44255;49.244;7.726;2023-03-20T06:42:10;98724.34;;;2.13;97.42
58467;BME280;44255;49.244;7.726;2023-03-20T06:44:37;98722.06;;;1.99;100.00
58467;BME280;44255;49.244;7.726;2023-03-20T06:47:02;98720.56;;;1.57;100.00
58467;BME280;44255;49.244;7.726;2023-03-20T06:49:27;98726.09;;;2.14;100.00
58467;BME280;44255;49.244;7.726;2023-03-20T06:51:52;98714.72;;;2.38;98.89
58467;BME280;44255;49.244;7.726;2023-03-20T06:54:18;98725.34;;;2.38;97.92
58467;BME280;44255;49.244;7.726;2023-03-20T06:56:43;98714.78;;;2.37;98.05
58467;BME280;44255;49.244;7.726;2023-03-20T06:59:08;98719.56;;;2.24;97.72
58467;BME280;44255;49.244;7.726;2023-03-20T07:01:33;98708.53;;;1.76;100.00
58467;BME280;44255;49.244;7.726;2023-03-20T07:03:59;98713.84;;;2.08;99.93
58467;BME280;44255;49.244;7.726;2023-03-20T07:06:25;98712.25;;;2.01;99.81
58467;BME280;44255;49.244;7.726;2023-03-20T07:08:50;98710.22;;;2.42;99.01
58467;BME280;44255;49.244;7.726;2023-03-20T07:11:17;98707.94;;;2.58;95.26
58467;BME280;44255;49.244;7.726;2023-03-20T07:13:43;98710.53;;;2.61;94.07
58467;BME280;44255;49.244;7.726;2023-03-20T07:16:08;98716.88;;;2.25;94.84
58467;BME280;44255;49.244;7.726;2023-03-20T07:18:33;98711.34;;;2.63;93.21
58467;BME280;44255;49.244;7.726;2023-03-20T07:21:01;98712.59;;;2.80;92.47
58467;BME280;44255;49.244;7.726;2023-03-20T07:23:27;98713.69;;;2.44;94.09
58467;BME280;44255;49.244;7.726;2023-03-20T07:25:53;98723.25;;;2.20;97.19
58467;BME280;44255;49.244;7.726;2023-03-20T07:28:18;98709.69;;;1.67;100.00
58467;BME280;44255;49.244;7.726;2023-03-20T07:30:43;98719.22;;;2.66;95.04
58467;BME280;44255;49.244;7.726;2023-03-20T07:33:08;98722.38;;;2.19;96.94
58467;BME280;44255;49.244;7.726;2023-03-20T07:35:34;98725.22;;;2.45;95.50
58467;BME280;44255;49.244;7.726;2023-03-20T07:38:00;98730.88;;;2.32;96.57
58467;BME280;44255;49.244;7.726;2023-03-20T07:40:25;98740.41;;;2.39;94.79
58467;BME280;44255;49.244;7.726;2023-03-20T07:42:51;98747.34;;;2.75;93.24
58467;BME280;44255;49.244;7.726;2023-03-20T07:45:16;98746.00;;;1.99;94.84
58467;BME280;44255;49.244;7.726;2023-03-20T07:47:43;98750.38;;;1.68;100.00
58467;BME280;44255;49.244;7.726;2023-03-20T07:50:08;98742.72;;;1.56;100.00
58467;BME280;44255;49.244;7.726;2023-03-20T07:52:34;98747.53;;;1.74;100.00
58467;BME280;44255;49.244;7.726;2023-03-20T07:54:59;98748.44;;;2.06;97.41
58467;BME280;44255;49.244;7.726;2023-03-20T07:57:24;98751.69;;;2.18;96.90
58467;BME280;44255;49.244;7.726;2023-03-20T07:59:50;98743.97;;;2.38;93.63
58467;BME280;44255;49.244;7.726;2023-03-20T08:02:16;98749.00;;;2.49;92.79
58467;BME280;44255;49.244;7.726;2023-03-20T08:04:42;98754.66;;;2.07;98.36
58467;BME280;44255;49.244;7.726;2023-03-20T08:07:07;98762.28;;;2.19;95.43
58467;BME280;44255;49.244;7.726;2023-03-20T08:09:33;98762.53;;;2.42;94.29
58467;BME280;44255;49.244;7.726;2023-03-20T08:11:58;98767.22;;;2.32;94.25
58467;BME280;44255;49.244;7.726;2023-03-20T08:14:23;98772.13;;;2.47;90.97
58467;BME280;44255;49.244;7.726;2023-03-20T08:16:49;98770.25;;;2.51;91.87
58467;BME280;44255;49.244;7.726;2023-03-20T08:19:14;98775.25;;;2.62;91.44
58467;BME280;44255;49.244;7.726;2023-03-20T08:21:39;98776.91;;;2.34;91.69
58467;BME280;44255;49.244;7.726;2023-03-20T08:24:05;98775.09;;;2.35;91.74
58467;BME280;44255;49.244;7.726;2023-03-20T08:26:30;98777.63;;;2.39;91.12
58467;BME280;44255;49.244;7.726;2023-03-20T08:28:56;98781.59;;;2.58;89.81
58467;BME280;44255;49.244;7.726;2023-03-20T08:31:21;98780.44;;;2.66;88.61
58467;BME280;44255;49.244;7.726;2023-03-20T08:33:47;98774.22;;;2.94;87.23
58467;BME280;44255;49.244;7.726;2023-03-20T08:36:13;98778.78;;;2.62;87.78
58467;BME280;44255;49.244;7.726;2023-03-20T08:38:40;98781.47;;;2.61;83.81
58467;BME280;44255;49.244;7.726;2023-03-20T08:41:05;98793.09;;;2.58;82.91
58467;BME280;44255;49.244;7.726;2023-03-20T08:43:31;98786.03;;;2.57;84.10
58467;BME280;44255;49.244;7.726;2023-03-20T08:45:56;98789.72;;;2.81;83.28
58467;BME280;44255;49.244;7.726;2023-03-20T08:48:21;98793.06;;;3.17;82.14
58467;BME280;44255;49.244;7.726;2023-03-20T08:50:47;98790.41;;;2.88;83.83
58467;BME280;44255;49.244;7.726;2023-03-20T08:53:12;98785.31;;;3.63;79.89
58467;BME280;44255;49.244;7.726;2023-03-20T08:55:37;98791.81;;;3.00;81.63
58467;BME280;44255;49.244;7.726;2023-03-20T09:36:23;98801.19;;;2.84;72.18
58467;BME280;44255;49.244;7.726;2023-03-20T09:38:48;98808.78;;;2.98;71.28
58467;BME280;44255;49.244;7.726;2023-03-20T09:41:19;98813.50;;;2.58;68.86
58467;BME280;44255;49.244;7.726;2023-03-20T09:44:00;98806.19;;;2.94;70.68
58467;BME280;44255;49.244;7.726;2023-03-20T10:06:14;98803.25;;;3.04;66.76
58467;BME280;44255;49.244;7.726;2023-03-20T10:08:41;98800.06;;;3.48;65.72
58467;BME280;44255;49.244;7.726;2023-03-20T10:19:24;98800.78;;;2.98;62.44
58467;BME280;44255;49.244;7.726;2023-03-20T10:22:09;98806.13;;;3.24;62.62
58467;BME280;44255;49.244;7.726;2023-03-20T10:24:40;98796.09;;;3.60;61.95
58467;BME280;44255;49.244;7.726;2023-03-20T10:27:21;98781.59;;;4.19;61.35
58467;BME280;44255;49.244;7.726;2023-03-20T10:30:06;98778.22;;;4.40;60.45
58467;BME280;44255;49.244;7.726;2023-03-20T10:35:33;98790.09;;;4.31;58.67
58467;BME280;44255;49.244;7.726;2023-03-20T10:38:11;98787.94;;;4.17;59.42
58467;BME280;44255;49.244;7.726;2023-03-20T10:40:40;98795.16;;;3.88;57.71
58467;BME280;44255;49.244;7.726;2023-03-20T10:43:25;98800.53;;;3.86;58.02
58467;BME280;44255;49.244;7.726;2023-03-20T10:45:58;98798.56;;;3.66;57.57
58467;BME280;44255;49.244;7.726;2023-03-20T10:48:42;98790.66;;;3.63;58.52
58467;BME280;44255;49.244;7.726;2023-03-20T10:51:14;98798.38;;;3.71;59.44
58467;BME280;44255;49.244;7.726;2023-03-20T10:53:51;98797.22;;;4.05;59.84
58467;BME280;44255;49.244;7.726;2023-03-20T10:56:39;98799.13;;;3.76;60.21
58467;BME280;44255;49.244;7.726;2023-03-20T10:59:25;98795.16;;;3.88;59.65
58467;BME280;44255;49.244;7.726;2023-03-20T11:01:52;98804.66;;;3.70;60.92
58467;BME280;44255;49.244;7.726;2023-03-20T11:04:18;98798.91;;;3.82;60.85
58467;BME280;44255;49.244;7.726;2023-03-20T11:07:11;98794.91;;;3.94;60.21
58467;BME280;44255;49.244;7.726;2023-03-20T11:09:39;98781.72;;;4.40;59.28
58467;BME280;44255;49.244;7.726;2023-03-20T11:12:04;98777.75;;;4.52;58.76
58467;BME280;44255;49.244;7.726;2023-03-20T11:14:36;98785.41;;;4.37;59.03
58467;BME280;44255;49.244;7.726;2023-03-20T11:17:04;98781.84;;;4.37;56.08
58467;BME280;44255;49.244;7.726;2023-03-20T11:19:35;98794.78;;;4.72;52.66
58467;BME280;44255;49.244;7.726;2023-03-20T11:22:07;98791.63;;;4.62;49.72
58467;BME280;44255;49.244;7.726;2023-03-20T11:24:41;98779.28;;;4.10;46.98
58467;BME280;44255;49.244;7.726;2023-03-20T11:27:16;98781.88;;;4.12;47.16
58467;BME280;44255;49.244;7.726;2023-03-20T11:29:45;98775.78;;;3.83;47.03
58467;BME280;44255;49.244;7.726;2023-03-20T11:34:40;98765.84;;;4.13;47.86
58467;BME280;44255;49.244;7.726;2023-03-20T11:37:28;98768.44;;;4.62;45.87
58467;BME280;44255;49.244;7.726;2023-03-20T11:40:13;98773.69;;;3.91;44.82
58467;BME280;44255;49.244;7.726;2023-03-20T11:42:50;98766.59;;;4.17;44.56
58467;BME280;44255;49.244;7.726;2023-03-20T11:45:17;98773.88;;;4.12;45.78
58467;BME280;44255;49.244;7.726;2023-03-20T11:47:42;98772.50;;;4.49;45.13
58467;BME280;44255;49.244;7.726;2023-03-20T11:50:26;98778.53;;;4.06;46.31
58467;BME280;44255;49.244;7.726;2023-03-20T11:52:53;98774.22;;;4.02;47.00
58467;BME280;44255;49.244;7.726;2023-03-20T11:55:27;98770.53;;;4.30;46.87
58467;BME280;44255;49.244;7.726;2023-03-20T11:57:56;98760.22;;;4.45;46.98
58467;BME280;44255;49.244;7.726;2023-03-20T12:00:27;98767.88;;;4.30;47.51
58467;BME280;44255;49.244;7.726;2023-03-20T12:02:53;98769.31;;;4.39;47.65
58467;BME280;44255;49.244;7.726;2023-03-20T12:05:36;98756.84;;;4.86;47.96
58467;BME280;44255;49.244;7.726;2023-03-20T12:08:23;98752.88;;;4.74;47.69
58467;BME280;44255;49.244;7.726;2023-03-20T12:11:00;98751.56;;;4.38;48.83
58467;BME280;44255;49.244;7.726;2023-03-20T12:13:36;98752.72;;;4.55;49.44
58467;BME280;44255;49.244;7.726;2023-03-20T12:16:09;98759.09;;;4.03;50.40
58467;BME280;44255;49.244;7.726;2023-03-20T12:18:42;98751.28;;;4.46;49.90
58467;BME280;44255;49.244;7.726;2023-03-20T12:21:14;98741.09;;;4.79;49.24
58467;BME280;44255;49.244;7.726;2023-03-20T12:23:54;98738.88;;;4.45;49.99
58467;BME280;44255;49.244;7.726;2023-03-20T12:29:44;98744.44;;;5.07;48.92
58467;BME280;44255;49.244;7.726;2023-03-20T12:32:27;98737.31;;;4.85;48.70
58467;BME280;44255;49.244;7.726;2023-03-20T12:34:57;98750.72;;;4.84;49.36
58467;BME280;44255;49.244;7.726;2023-03-20T12:37:26;98741.16;;;4.78;50.13
58467;BME280;44255;49.244;7.726;2023-03-20T12:40:01;98730.13;;;4.63;49.86
58467;BME280;44255;49.244;7.726;2023-03-20T12:45:18;98724.91;;;5.91;48.25
58467;BME280;44255;49.244;7.726;2023-03-20T12:50:46;98736.16;;;5.13;48.51
58467;BME280;44255;49.244;7.726;2023-03-20T12:56:30;98716.63;;;5.33;48.13
58467;BME280;44255;49.244;7.726;2023-03-20T12:59:11;98722.28;;;5.05;48.28
58467;BME280;44255;49.244;7.726;2023-03-20T13:01:51;98716.16;;;5.46;47.20
58467;BME280;44255;49.244;7.726;2023-03-20T13:07:19;98721.75;;;5.60;47.77
58467;BME280;44255;49.244;7.726;2023-03-20T13:10:11;98708.88;;;4.84;50.33
58467;BME280;44255;49.244;7.726;2023-03-20T13:12:53;98702.94;;;5.20;50.01
58467;BME280;44255;49.244;7.726;2023-03-20T13:15:37;98704.69;;;4.99;49.24
58467;BME280;44255;49.244;7.726;2023-03-20T13:18:38;98704.81;;;5.18;48.73
58467;BME280;44255;49.244;7.726;2023-03-20T13:21:16;98688.25;;;5.51;48.94
58467;BME280;44255;49.244;7.726;2023-03-20T13:24:18;98688.06;;;5.56;48.04
58467;BME280;44255;49.244;7.726;2023-03-20T13:27:01;98701.31;;;5.16;49.28
58467;BME280;44255;49.244;7.726;2023-03-20T13:29:55;98709.19;;;4.06;52.31
58467;BME280;44255;49.244;7.726;2023-03-20T13:37:46;98691.78;;;5.31;49.97
58467;BME280;44255;49.244;7.726;2023-03-20T13:40:22;98684.25;;;5.41;50.47
58467;BME280;44255;49.244;7.726;2023-03-20T13:42:52;98690.28;;;5.03;49.95
58467;BME280;44255;49.244;7.726;2023-03-20T13:45:29;98695.41;;;5.30;48.64
58467;BME280;44255;49.244;7.726;2023-03-20T13:48:00;98693.75;;;4.83;50.86
58467;BME280;44255;49.244;7.726;2023-03-20T13:53:28;98681.59;;;4.76;49.16
58467;BME280;44255;49.244;7.726;2023-03-20T13:55:57;98686.44;;;4.66;48.58
58467;BME280;44255;49.244;7.726;2023-03-20T13:58:56;98683.81;;;4.42;49.15
58467;BME280;44255;49.244;7.726;2023-03-20T14:01:44;98680.94;;;4.71;48.95
58467;BME280;44255;49.244;7.726;2023-03-20T14:04:17;98680.03;;;4.48;47.18
58467;BME280;44255;49.244;7.726;2023-03-20T14:06:47;98677.84;;;4.12;48.29
58467;BME280;44255;49.244;7.726;2023-03-20T14:11:53;98680.59;;;4.56;47.00
58467;BME280;44255;49.244;7.726;2023-03-20T14:14:26;98670.78;;;4.57;45.85
58467;BME280;44255;49.244;7.726;2023-03-20T14:17:16;98660.47;;;4.92;44.88
58467;BME280;44255;49.244;7.726;2023-03-20T14:19:42;98674.13;;;4.40;44.78
58467;BME280;44255;49.244;7.726;2023-03-20T14:22:14;98677.28;;;4.27;44.98
58467;BME280;44255;49.244;7.726;2023-03-20T14:24:46;98666.34;;;4.11;46.29
58467;BME280;44255;49.244;7.726;2023-03-20T14:27:17;98677.16;;;3.83;46.95
58467;BME280;44255;49.244;7.726;2023-03-20T14:29:44;98667.03;;;3.67;47.95
58467;BME280;44255;49.244;7.726;2023-03-20T14:34:49;98677.22;;;3.79;48.00
58467;BME280;44255;49.244;7.726;2023-03-20T14:37:34;98667.84;;;3.69;49.36
58467;BME280;44255;49.244;7.726;2023-03-20T14:50:12;98676.50;;;3.76;51.13
58467;BME280;44255;49.244;7.726;2023-03-20T15:03:56;98668.28;;;4.30;48.48
58467;BME280;44255;49.244;7.726;2023-03-20T15:06:24;98677.16;;;4.30;48.59
58467;BME280;44255;49.244;7.726;2023-03-20T15:08:53;98676.41;;;3.77;47.74
58467;BME280;44255;49.244;7.726;2023-03-20T15:11:21;98672.34;;;3.92;48.19
58467;BME280;44255;49.244;7.726;2023-03-20T15:13:48;98660.44;;;3.77;46.80
58467;BME280;44255;49.244;7.726;2023-03-20T15:16:15;98664.19;;;4.21;46.24
58467;BME280;44255;49.244;7.726;2023-03-20T15:18:44;98651.97;;;3.90;45.35
58467;BME280;44255;49.244;7.726;2023-03-20T15:23:40;98653.47;;;3.73;45.67
58467;BME280;44255;49.244;7.726;2023-03-20T15:26:06;98647.56;;;3.65;45.74
58467;BME280;44255;49.244;7.726;2023-03-20T15:28:32;98652.78;;;3.68;45.98
58467;BME280;44255;49.244;7.726;2023-03-20T15:31:01;98653.06;;;3.35;47.07
58467;BME280;44255;49.244;7.726;2023-03-20T15:33:31;98655.06;;;3.03;47.50
58467;BME280;44255;49.244;7.726;2023-03-20T15:35:57;98654.09;;;3.05;47.12
58467;BME280;44255;49.244;7.726;2023-03-20T15:38:28;98643.69;;;2.71;48.49
58467;BME280;44255;49.244;7.726;2023-03-20T15:40:56;98643.75;;;2.96;48.61
58467;BME280;44255;49.244;7.726;2023-03-20T15:43:23;98656.31;;;3.18;48.07
58467;BME280;44255;49.244;7.726;2023-03-20T15:45:50;98646.16;;;3.29;47.96
58467;BME280;44255;49.244;7.726;2023-03-20T15:48:20;98644.41;;;3.28;48.12
58467;BME280;44255;49.244;7.726;2023-03-20T15:50:54;98649.97;;;3.47;48.45
58467;BME280;44255;49.244;7.726;2023-03-20T15:53:35;98644.84;;;3.41;47.72
58467;BME280;44255;49.244;7.726;2023-03-20T15:56:07;98655.19;;;3.50;47.99
58467;BME280;44255;49.244;7.726;2023-03-20T15:58:34;98655.38;;;3.70;47.74
58467;BME280;44255;49.244;7.726;2023-03-20T16:01:02;98647.19;;;3.50;48.20
58467;BME280;44255;49.244;7.726;2023-03-20T16:03:28;98648.78;;;3.56;48.28
58467;BME280;44255;49.244;7.726;2023-03-20T16:05:54;98651.13;;;3.64;48.10
58467;BME280;44255;49.244;7.726;2023-03-20T16:08:25;98652.41;;;3.53;48.65
58467;BME280;44255;49.244;7.726;2023-03-20T16:10:57;98650.13;;;3.68;48.69
58467;BME280;44255;49.244;7.726;2023-03-20T16:13:23;98644.03;;;3.64;49.19
58467;BME280;44255;49.244;7.726;2023-03-20T16:15:50;98636.41;;;3.53;49.79
58467;BME280;44255;49.244;7.726;2023-03-20T16:18:17;98636.84;;;3.41;49.87
58467;BME280;44255;49.244;7.726;2023-03-20T16:20:54;98643.81;;;3.20;50.85
58467;BME280;44255;49.244;7.726;2023-03-20T16:23:33;98641.47;;;3.10;51.45
58467;BME280;44255;49.244;7.726;2023-03-20T16:26:00;98637.00;;;3.11;51.45
58467;BME280;44255;49.244;7.726;2023-03-20T16:28:27;98638.25;;;3.01;51.79
58467;BME280;44255;49.244;7.726;2023-03-20T16:31:02;98636.13;;;2.85;52.87
58467;BME280;44255;49.244;7.726;2023-03-20T16:33:30;98631.66;;;2.86;52.96
58467;BME280;44255;49.244;7.726;2023-03-20T16:35:55;98633.38;;;2.87;52.96
58467;BME280;44255;49.244;7.726;2023-03-20T16:38:25;98639.94;;;3.03;52.88
58467;BME280;44255;49.244;7.726;2023-03-20T16:40:53;98637.22;;;2.78;53.55
58467;BME280;44255;49.244;7.726;2023-03-20T16:43:24;98638.56;;;2.91;53.33
58467;BME280;44255;49.244;7.726;2023-03-20T16:45:53;98655.41;;;2.65;53.94
58467;BME280;44255;49.244;7.726;2023-03-20T16:51:16;98638.16;;;2.77;53.95
58467;BME280;44255;49.244;7.726;2023-03-20T16:53:44;98642.00;;;2.95;53.83
58467;BME280;44255;49.244;7.726;2023-03-20T16:56:12;98643.44;;;2.78;54.30
58467;BME280;44255;49.244;7.726;2023-03-20T16:58:40;98643.44;;;2.78;54.31
58467;BME280;44255;49.244;7.726;2023-03-20T17:01:14;98646.66;;;2.88;54.92
58467;BME280;44255;49.244;7.726;2023-03-20T17:08:47;98648.00;;;3.02;54.89
58467;BME280;44255;49.244;7.726;2023-03-20T17:11:22;98642.09;;;2.92;54.72
58467;BME280;44255;49.244;7.726;2023-03-20T17:13:50;98640.16;;;2.97;54.41
58467;BME280;44255;49.244;7.726;2023-03-20T17:16:18;98642.56;;;3.05;54.60
58467;BME280;44255;49.244;7.726;2023-03-20T17:18:45;98644.06;;;3.12;55.27
58467;BME280;44255;49.244;7.726;2023-03-20T17:21:10;98645.75;;;3.15;54.95
58467;BME280;44255;49.244;7.726;2023-03-20T17:23:36;98643.00;;;3.18;54.68
58467;BME280;44255;49.244;7.726;2023-03-20T17:26:02;98636.97;;;3.13;55.00
58467;BME280;44255;49.244;7.726;2023-03-20T17:28:33;98639.84;;;3.06;55.65
58467;BME280;44255;49.244;7.726;2023-03-20T17:31:00;98637.34;;;3.02;55.20
58467;BME280;44255;49.244;7.726;2023-03-20T17:33:30;98633.97;;;2.97;55.80
58467;BME280;44255;49.244;7.726;2023-03-20T17:35:57;98634.72;;;3.00;56.97
58467;BME280;44255;49.244;7.726;2023-03-20T17:38:23;98632.88;;;3.02;57.77
58467;BME280;44255;49.244;7.726;2023-03-20T17:40:50;98627.34;;;2.81;60.23
58467;BME280;44255;49.244;7.726;2023-03-20T17:43:16;98622.94;;;2.80;62.74
58467;BME280;44255;49.244;7.726;2023-03-20T17:45:42;98637.81;;;2.88;66.14
58467;BME280;44255;49.244;7.726;2023-03-20T17:48:18;98636.69;;;2.95;67.86
58467;BME280;44255;49.244;7.726;2023-03-20T17:50:45;98629.25;;;2.78;67.86
58467;BME280;44255;49.244;7.726;2023-03-20T17:53:23;98645.75;;;2.62;69.58
58467;BME280;44255;49.244;7.726;2023-03-20T17:55:49;98635.34;;;2.81;69.70
58467;BME280;44255;49.244;7.726;2023-03-20T17:58:18;98648.28;;;2.65;70.90
58467;BME280;44255;49.244;7.726;2023-03-20T18:00:46;98643.69;;;2.71;70.39
58467;BME280;44255;49.244;7.726;2023-03-20T18:03:11;98643.00;;;2.64;70.46
58467;BME280;44255;49.244;7.726;2023-03-20T18:05:39;98645.31;;;2.48;71.48
58467;BME280;44255;49.244;7.726;2023-03-20T18:08:08;98644.31;;;2.79;70.26
58467;BME280;44255;49.244;7.726;2023-03-20T18:10:36;98637.16;;;2.81;69.92
58467;BME280;44255;49.244;7.726;2023-03-20T18:13:01;98636.75;;;2.65;71.74
58467;BME280;44255;49.244;7.726;2023-03-20T18:15:27;98626.56;;;2.78;71.41
58467;BME280;44255;49.244;7.726;2023-03-20T18:17:52;98628.72;;;2.93;72.49
58467;BME280;44255;49.244;7.726;2023-03-20T18:20:30;98622.06;;;3.07;70.57
58467;BME280;44255;49.244;7.726;2023-03-20T18:22:56;98633.66;;;3.31;70.40
58467;BME280;44255;49.244;7.726;2023-03-20T18:25:22;98641.09;;;2.41;73.95
58467;BME280;44255;49.244;7.726;2023-03-20T18:27:50;98637.09;;;2.25;75.79
58467;BME280;44255;49.244;7.726;2023-03-20T18:30:19;98630.16;;;2.77;72.34
58467;BME280;44255;49.244;7.726;2023-03-20T18:32:44;98639.31;;;2.68;72.68
58467;BME280;44255;49.244;7.726;2023-03-20T18:35:10;98648.66;;;2.55;73.30
58467;BME280;44255;49.244;7.726;2023-03-20T18:37:36;98648.66;;;2.55;74.10
58467;BME280;44255;49.244;7.726;2023-03-20T18:40:02;98646.84;;;2.55;73.91
58467;BME280;44255;49.244;7.726;2023-03-20T18:42:27;98653.91;;;2.26;75.21
58467;BME280;44255;49.244;7.726;2023-03-20T18:44:52;98651.97;;;2.03;76.65
58467;BME280;44255;49.244;7.726;2023-03-20T18:47:18;98652.94;;;2.29;75.04
58467;BME280;44255;49.244;7.726;2023-03-20T18:49:43;98648.16;;;2.42;73.98
58467;BME280;44255;49.244;7.726;2023-03-20T18:52:08;98649.59;;;2.52;73.86
58467;BME280;44255;49.244;7.726;2023-03-20T18:54:35;98646.16;;;2.48;74.29
58467;BME280;44255;49.244;7.726;2023-03-20T18:57:00;98655.03;;;2.49;73.69
58467;BME280;44255;49.244;7.726;2023-03-20T18:59:26;98655.75;;;2.24;74.99
58467;BME280;44255;49.244;7.726;2023-03-20T19:01:51;98657.69;;;2.19;74.96
58467;BME280;44255;49.244;7.726;2023-03-20T19:04:17;98653.72;;;2.32;74.42
58467;BME280;44255;49.244;7.726;2023-03-20T19:06:43;98661.75;;;2.31;73.96
58467;BME280;44255;49.244;7.726;2023-03-20T19:09:10;98655.69;;;1.97;75.54
58467;BME280;44255;49.244;7.726;2023-03-20T19:11:36;98653.38;;;1.53;77.15
58467;BME280;44255;49.244;7.726;2023-03-20T19:14:01;98651.66;;;1.82;76.02
58467;BME280;44255;49.244;7.726;2023-03-20T19:16:32;98660.72;;;1.76;77.35
58467;BME280;44255;49.244;7.726;2023-03-20T19:19:00;98656.34;;;1.74;76.91
58467;BME280;44255;49.244;7.726;2023-03-20T19:21:30;98658.16;;;2.03;75.41
58467;BME280;44255;49.244;7.726;2023-03-20T19:23:57;98656.59;;;1.96;76.10
58467;BME280;44255;49.244;7.726;2023-03-20T19:26:25;98657.50;;;1.95;75.78
58467;BME280;44255;49.244;7.726;2023-03-20T19:28:51;98652.69;;;1.78;77.48
58467;BME280;44255;49.244;7.726;2023-03-20T19:31:17;98653.97;;;1.94;76.54
58467;BME280;44255;49.244;7.726;2023-03-20T19:33:43;98651.38;;;1.93;76.64
58467;BME280;44255;49.244;7.726;2023-03-20T19:36:28;98645.31;;;1.56;77.87
58467;BME280;44255;49.244;7.726;2023-03-20T19:38:54;98640.34;;;1.75;76.85
58467;BME280;44255;49.244;7.726;2023-03-20T19:41:20;98638.97;;;1.62;77.85
58467;BME280;44255;49.244;7.726;2023-03-20T19:43:45;98635.72;;;1.52;78.73
58467;BME280;44255;49.244;7.726;2023-03-20T19:46:12;98637.66;;;1.45;78.73
58467;BME280;44255;49.244;7.726;2023-03-20T19:48:39;98638.63;;;1.41;78.84
58467;BME280;44255;49.244;7.726;2023-03-20T19:51:05;98645.44;;;1.51;77.94
58467;BME280;44255;49.244;7.726;2023-03-20T19:53:32;98645.25;;;1.59;78.59
58467;BME280;44255;49.244;7.726;2023-03-20T19:55:58;98647.59;;;1.70;78.40
58467;BME280;44255;49.244;7.726;2023-03-20T19:58:23;98647.66;;;1.68;78.22
58467;BME280;44255;49.244;7.726;2023-03-20T20:00:48;98639.84;;;1.29;79.01
58467;BME280;44255;49.244;7.726;2023-03-20T20:03:22;98641.97;;;1.49;78.64